createdAt,value
2019-05-20T00:00:31.396Z,32.10
2019-05-20T00:02:57.546Z,26.53
2019-05-20T00:05:24.026Z,27.73
2019-05-20T00:07:50.227Z,28.77
2019-05-20T00:10:16.604Z,30.00
2019-05-20T00:12:42.825Z,31.33
2019-05-20T00:15:09.178Z,29.47
2019-05-20T00:17:35.396Z,30.43
2019-05-20T00:20:03.654Z,30.27
2019-05-20T00:22:29.779Z,26.17
2019-05-20T00:24:55.879Z,28.90
2019-05-20T00:27:22.124Z,28.17
2019-05-20T00:29:48.554Z,28.87
2019-05-20T00:32:15.743Z,32.87
2019-05-20T00:34:42.175Z,30.40
2019-05-20T00:37:08.483Z,33.73
2019-05-20T00:39:34.887Z,34.30
2019-05-20T00:42:01.036Z,31.83
2019-05-20T00:44:27.388Z,30.10
2019-05-20T00:46:53.622Z,32.33
2019-05-20T00:49:19.934Z,31.97
2019-05-20T00:51:46.278Z,28.90
2019-05-20T00:54:12.586Z,32.30
2019-05-20T00:56:38.925Z,32.83
2019-05-20T00:59:05.573Z,30.77
2019-05-20T01:01:32.037Z,33.20
2019-05-20T01:03:58.140Z,28.47
2019-05-20T01:06:24.741Z,29.03
2019-05-20T01:08:51.061Z,32.10
2019-05-20T01:11:17.306Z,33.83
2019-05-20T01:13:43.735Z,35.87
2019-05-20T01:16:10.101Z,33.43
2019-05-20T01:18:36.341Z,41.33
2019-05-20T01:21:02.559Z,37.30
2019-05-20T01:23:28.777Z,36.10
2019-05-20T01:25:54.967Z,33.93
2019-05-20T01:28:21.113Z,34.60
2019-05-20T01:30:47.337Z,32.53
2019-05-20T01:33:14.464Z,34.50
2019-05-20T01:35:40.902Z,31.70
2019-05-20T01:38:07.292Z,35.67
2019-05-20T01:40:33.576Z,35.67
2019-05-20T01:42:59.738Z,36.10
2019-05-20T01:45:26.036Z,37.70
2019-05-20T01:47:52.129Z,33.13
2019-05-20T01:50:18.528Z,39.50
2019-05-20T01:52:44.779Z,41.33
2019-05-20T01:55:11.181Z,41.07
2019-05-20T01:57:37.265Z,40.57
2019-05-20T02:00:06.297Z,43.20
2019-05-20T02:02:33.485Z,42.80
2019-05-20T02:04:59.597Z,38.80
2019-05-20T02:07:25.910Z,41.13
2019-05-20T02:09:52.122Z,43.57
2019-05-20T02:12:18.579Z,38.23
2019-05-20T02:14:46.843Z,38.70
2019-05-20T02:17:13.095Z,39.37
2019-05-20T02:19:39.388Z,40.33
2019-05-20T02:22:05.780Z,40.27
2019-05-20T02:24:31.991Z,37.33
2019-05-20T02:26:58.117Z,41.27
2019-05-20T02:29:24.275Z,46.60
2019-05-20T02:31:51.349Z,43.50
2019-05-20T02:34:17.494Z,40.87
2019-05-20T02:36:43.604Z,44.63
2019-05-20T02:39:09.874Z,48.80
2019-05-20T02:41:36.218Z,40.93
2019-05-20T02:44:02.437Z,38.53
2019-05-20T02:46:28.646Z,44.77
2019-05-20T02:48:54.779Z,49.97
2019-05-20T02:51:29.975Z,43.20
2019-05-20T02:53:56.108Z,41.53
2019-05-20T02:56:23.422Z,42.07
2019-05-20T02:58:49.661Z,41.07
2019-05-20T03:01:16.046Z,44.33
2019-05-20T03:03:42.291Z,43.03
2019-05-20T03:06:08.633Z,47.53
2019-05-20T03:08:34.733Z,40.13
2019-05-20T03:11:01.262Z,50.23
2019-05-20T03:13:27.490Z,48.03
2019-05-20T03:15:53.733Z,47.83
2019-05-20T03:18:19.966Z,42.43
2019-05-20T03:20:46.175Z,44.43
2019-05-20T03:23:12.328Z,62.23
2019-05-20T03:25:38.641Z,51.27
2019-05-20T03:28:04.875Z,56.20
2019-05-20T03:30:31.128Z,55.43
2019-05-20T03:32:57.365Z,57.97
2019-05-20T03:35:23.721Z,59.80
2019-05-20T03:37:49.916Z,56.10
2019-05-20T03:40:16.223Z,50.87
2019-05-20T03:42:42.455Z,49.37
2019-05-20T03:45:08.785Z,52.13
2019-05-20T03:47:35.250Z,47.43
2019-05-20T03:50:01.618Z,59.70
2019-05-20T03:52:28.061Z,55.83
2019-05-20T03:54:54.155Z,65.17
2019-05-20T03:57:20.497Z,66.70
2019-05-20T03:59:47.113Z,62.60
2019-05-20T04:02:13.332Z,71.93
2019-05-20T04:04:39.553Z,62.37
2019-05-20T04:07:05.789Z,52.47
2019-05-20T04:09:32.041Z,53.90
2019-05-20T04:11:58.258Z,51.47
2019-05-20T04:14:24.403Z,54.83
2019-05-20T04:16:51.693Z,53.67
2019-05-20T04:19:18.054Z,49.90
2019-05-20T04:21:45.319Z,50.13
2019-05-20T04:24:11.701Z,49.73
2019-05-20T04:26:38.009Z,51.57
2019-05-20T04:29:04.329Z,54.63
2019-05-20T04:31:30.523Z,52.80
2019-05-20T04:33:56.729Z,49.80
2019-05-20T04:36:22.850Z,53.37
2019-05-20T04:38:48.962Z,52.57
2019-05-20T04:41:15.306Z,52.13
2019-05-20T04:43:41.504Z,52.60
2019-05-20T04:46:07.736Z,53.77
2019-05-20T04:48:33.881Z,54.97
2019-05-20T04:51:00.207Z,60.90
2019-05-20T04:53:26.658Z,63.23
2019-05-20T04:55:52.900Z,64.63
2019-05-20T04:58:19.333Z,69.13
2019-05-20T05:00:49.321Z,71.57
2019-05-20T05:03:15.447Z,69.20
2019-05-20T05:05:41.766Z,66.50
2019-05-20T05:08:09.286Z,61.50
2019-05-20T05:10:35.569Z,70.60
2019-05-20T05:13:01.904Z,67.67
2019-05-20T05:15:28.224Z,69.63
2019-05-20T05:17:54.556Z,63.37
2019-05-20T05:20:20.896Z,67.73
2019-05-20T05:22:47.236Z,66.50
2019-05-20T05:25:13.614Z,63.00
2019-05-20T05:27:39.992Z,65.07
2019-05-20T05:30:06.633Z,64.77
2019-05-20T05:32:39.907Z,68.60
2019-05-20T05:35:06.248Z,76.80
2019-05-20T05:37:32.538Z,79.43
2019-05-20T05:39:58.867Z,68.40
2019-05-20T05:42:24.993Z,84.57
2019-05-20T05:44:51.110Z,78.83
2019-05-20T05:47:17.354Z,74.30
2019-05-20T05:49:43.633Z,68.60
2019-05-20T05:52:09.921Z,71.17
2019-05-20T05:54:36.035Z,74.87
2019-05-20T05:57:02.337Z,75.43
2019-05-20T05:59:28.486Z,76.20
2019-05-20T06:01:54.571Z,78.43
2019-05-20T06:04:20.684Z,80.23
2019-05-20T06:06:47.059Z,80.57
2019-05-20T06:09:13.171Z,97.10
2019-05-20T06:11:39.440Z,90.50
2019-05-20T06:14:05.659Z,99.53
2019-05-20T06:16:36.341Z,118.73
2019-05-20T06:19:01.014Z,96.67
2019-05-20T06:21:27.429Z,107.20
2019-05-20T06:23:53.625Z,105.20
2019-05-20T06:26:19.752Z,95.00
2019-05-20T06:28:45.872Z,94.00
2019-05-20T06:31:12.242Z,108.20
2019-05-20T06:33:38.569Z,101.43
2019-05-20T06:36:04.791Z,104.27
2019-05-20T06:38:35.942Z,101.07
2019-05-20T06:41:04.438Z,115.27
2019-05-20T06:43:30.761Z,106.90
2019-05-20T06:45:56.875Z,130.00
2019-05-20T06:48:23.221Z,107.60
2019-05-20T06:50:49.337Z,101.13
2019-05-20T06:53:15.586Z,125.07
2019-05-20T06:55:41.688Z,118.47
2019-05-20T06:58:07.904Z,121.47
2019-05-20T07:00:36.070Z,125.17
2019-05-20T07:03:03.324Z,118.07
2019-05-20T07:05:29.462Z,111.63
2019-05-20T07:07:56.021Z,115.80
2019-05-20T07:10:22.127Z,120.23
2019-05-20T07:12:48.432Z,136.70
2019-05-20T07:15:14.844Z,147.80
2019-05-20T07:17:41.185Z,126.97
2019-05-20T07:20:07.855Z,147.30
2019-05-20T07:22:34.047Z,149.80
2019-05-20T07:25:00.490Z,149.23
2019-05-20T07:27:26.688Z,125.90
2019-05-20T07:29:52.929Z,155.33
2019-05-20T07:32:19.347Z,138.77
2019-05-20T07:34:45.565Z,130.00
2019-05-20T07:37:11.878Z,119.87
2019-05-20T07:39:39.015Z,125.10
2019-05-20T07:42:05.323Z,119.80
2019-05-20T07:44:31.619Z,114.60
2019-05-20T07:46:57.992Z,103.57
2019-05-20T07:49:24.289Z,117.07
2019-05-20T07:51:51.075Z,103.03
2019-05-20T07:54:18.410Z,109.20
2019-05-20T07:56:46.521Z,103.83
2019-05-20T07:59:16.046Z,101.90
2019-05-20T08:01:43.316Z,95.50
2019-05-20T08:04:09.660Z,106.30
2019-05-20T08:06:36.176Z,99.47
2019-05-20T08:09:05.302Z,113.87
2019-05-20T08:11:31.918Z,126.93
2019-05-20T08:13:58.285Z,104.77
2019-05-20T08:16:24.790Z,112.43
2019-05-20T08:18:51.228Z,102.20
2019-05-20T08:21:17.491Z,107.07
2019-05-20T08:23:43.897Z,109.37
2019-05-20T08:26:10.242Z,101.67
2019-05-20T08:28:36.517Z,101.83
2019-05-20T08:31:02.927Z,92.97
2019-05-20T08:33:29.615Z,95.67
2019-05-20T08:35:55.825Z,104.13
2019-05-20T08:38:22.071Z,95.73
2019-05-20T08:40:48.914Z,108.10
2019-05-20T08:43:15.325Z,95.57
2019-05-20T08:45:41.538Z,102.47
2019-05-20T08:48:07.780Z,94.83
2019-05-20T08:50:34.001Z,94.73
2019-05-20T08:53:00.237Z,90.53
2019-05-20T08:55:26.664Z,92.63
2019-05-20T08:57:53.098Z,96.30
2019-05-20T09:00:23.716Z,93.57
2019-05-20T09:02:49.447Z,97.43
2019-05-20T09:05:15.719Z,92.33
2019-05-20T09:07:42.133Z,94.23
2019-05-20T09:10:08.570Z,91.90
2019-05-20T09:12:34.787Z,87.13
2019-05-20T09:15:01.167Z,88.13
2019-05-20T09:17:27.627Z,88.47
2019-05-20T09:19:53.773Z,89.30
2019-05-20T09:22:20.150Z,91.20
2019-05-20T09:24:46.560Z,87.67
2019-05-20T09:27:12.765Z,94.33
2019-05-20T09:29:39.105Z,87.27
2019-05-20T09:32:05.598Z,94.03
2019-05-20T09:34:32.058Z,87.83
2019-05-20T09:36:58.420Z,89.23
2019-05-20T09:39:24.547Z,89.70
2019-05-20T09:41:50.868Z,87.93
2019-05-20T09:44:17.177Z,85.60
2019-05-20T09:46:43.395Z,80.97
2019-05-20T09:49:09.641Z,77.53
2019-05-20T09:51:35.801Z,87.07
2019-05-20T09:54:02.127Z,80.73
2019-05-20T09:56:28.338Z,83.63
2019-05-20T09:58:54.557Z,87.07
2019-05-20T10:01:20.970Z,88.77
2019-05-20T10:03:47.302Z,90.03
2019-05-20T10:06:13.612Z,85.87
2019-05-20T10:08:44.819Z,84.40
2019-05-20T10:11:08.069Z,86.90
2019-05-20T10:13:35.494Z,92.63
2019-05-20T10:16:03.267Z,86.73
2019-05-20T10:18:37.251Z,89.43
2019-05-20T10:20:57.772Z,88.37
2019-05-20T10:23:24.204Z,88.43
2019-05-20T10:25:50.392Z,86.53
2019-05-20T10:28:16.717Z,81.03
2019-05-20T10:30:42.891Z,82.80
2019-05-20T10:33:10.442Z,84.93
2019-05-20T10:35:37.367Z,85.97
2019-05-20T10:38:03.692Z,80.33
2019-05-20T10:40:29.837Z,85.80
2019-05-20T10:42:57.029Z,83.87
2019-05-20T10:45:23.137Z,80.97
2019-05-20T10:47:49.367Z,81.07
2019-05-20T10:50:15.749Z,84.00
2019-05-20T10:52:42.067Z,80.43
2019-05-20T10:55:08.635Z,79.17
2019-05-20T10:57:34.973Z,82.80
2019-05-20T11:00:01.820Z,81.47
2019-05-20T11:02:31.282Z,77.20
2019-05-20T11:04:57.332Z,83.33
2019-05-20T11:07:23.583Z,77.83
2019-05-20T11:09:50.110Z,74.30
2019-05-20T11:12:16.441Z,78.00
2019-05-20T11:14:42.840Z,76.93
2019-05-20T11:17:09.131Z,80.53
2019-05-20T11:19:35.267Z,74.60
2019-05-20T11:22:01.610Z,78.40
2019-05-20T11:24:27.825Z,79.23
2019-05-20T11:26:54.210Z,79.33
2019-05-20T11:29:20.506Z,75.30
2019-05-20T11:31:46.835Z,74.87
2019-05-20T11:34:13.045Z,73.93
2019-05-20T11:36:39.182Z,78.13
2019-05-20T11:39:07.378Z,72.72
2019-05-20T11:41:52.920Z,73.67
2019-05-20T11:44:02.300Z,71.67
2019-05-20T11:46:28.520Z,72.10
2019-05-20T11:48:54.756Z,69.63
2019-05-20T11:51:20.839Z,76.10
2019-05-20T11:53:47.009Z,81.63
2019-05-20T11:56:13.144Z,76.27
2019-05-20T11:58:39.496Z,78.27
2019-05-20T12:01:06.325Z,75.83
2019-05-20T12:03:32.612Z,76.57
2019-05-20T12:05:59.030Z,76.77
2019-05-20T12:08:25.221Z,78.47
2019-05-20T12:10:51.443Z,77.47
2019-05-20T12:13:17.647Z,76.17
2019-05-20T12:15:43.866Z,81.97
2019-05-20T12:18:10.093Z,77.60
2019-05-20T12:20:36.303Z,79.27
2019-05-20T12:23:02.661Z,77.50
2019-05-20T12:25:28.771Z,75.63
2019-05-20T12:27:56.340Z,76.57
2019-05-20T12:30:23.473Z,73.80
2019-05-20T12:32:49.706Z,75.77
2019-05-20T12:35:15.828Z,78.47
2019-05-20T12:37:45.488Z,75.77
2019-05-20T12:40:10.492Z,79.75
2019-05-20T12:42:36.911Z,77.60
2019-05-20T12:45:07.488Z,74.72
2019-05-20T12:47:33.677Z,76.97
2019-05-20T12:49:59.939Z,74.27
2019-05-20T12:52:26.156Z,77.13
2019-05-20T12:55:06.644Z,76.00
2019-05-20T12:57:20.651Z,78.50
2019-05-20T12:59:47.036Z,77.90
2019-05-20T13:02:17.303Z,79.50
2019-05-20T13:04:41.233Z,78.15
2019-05-20T13:07:07.343Z,83.10
2019-05-20T13:09:33.787Z,83.27
2019-05-20T13:11:59.930Z,77.70
2019-05-20T13:14:26.140Z,79.73
2019-05-20T13:16:52.320Z,84.97
2019-05-20T13:19:18.489Z,82.55
2019-05-20T13:21:44.590Z,81.05
2019-05-20T13:24:10.704Z,80.62
2019-05-20T13:26:37.120Z,86.47
2019-05-20T13:29:03.680Z,89.25
2019-05-20T13:31:29.920Z,86.57
2019-05-20T13:33:56.062Z,83.93
2019-05-20T13:36:22.307Z,88.03
2019-05-20T13:38:48.414Z,86.87
2019-05-20T13:41:15.875Z,86.23
2019-05-20T13:43:42.245Z,84.20
2019-05-20T13:46:08.560Z,83.87
2019-05-20T13:48:34.790Z,84.87
2019-05-20T13:51:01.031Z,82.43
2019-05-20T13:53:27.278Z,83.85
2019-05-20T13:55:53.639Z,85.87
2019-05-20T13:58:19.882Z,83.65
2019-05-20T14:00:46.119Z,82.65
2019-05-20T14:03:12.366Z,81.50
2019-05-20T14:05:38.716Z,85.90
2019-05-20T14:08:04.863Z,87.77
2019-05-20T14:10:31.123Z,90.85
2019-05-20T14:12:57.233Z,87.27
2019-05-20T14:15:23.570Z,88.07
2019-05-20T14:17:50.062Z,84.70
2019-05-20T14:20:16.762Z,92.37
2019-05-20T14:22:45.599Z,89.83
2019-05-20T14:25:12.972Z,88.58
2019-05-20T14:27:39.328Z,90.40
2019-05-20T14:30:07.395Z,86.27
2019-05-20T14:32:34.202Z,82.82
2019-05-20T14:35:00.393Z,86.00
2019-05-20T14:37:26.490Z,84.17
2019-05-20T14:39:52.690Z,79.42
2019-05-20T14:42:18.928Z,86.50
2019-05-20T14:44:45.051Z,86.37
2019-05-20T14:47:11.433Z,87.47
2019-05-20T14:49:37.838Z,92.80
2019-05-20T14:52:04.148Z,87.53
2019-05-20T14:54:30.253Z,90.92
2019-05-20T14:56:56.567Z,88.47
2019-05-20T14:59:22.681Z,93.52
2019-05-20T15:01:49.038Z,93.50
2019-05-20T15:04:15.293Z,92.27
2019-05-20T15:06:41.754Z,93.10
2019-05-20T15:09:07.975Z,95.70
2019-05-20T15:11:38.116Z,94.77
2019-05-20T15:14:02.769Z,93.92
2019-05-20T15:16:29.218Z,91.77
2019-05-20T15:18:55.660Z,92.57
2019-05-20T15:21:21.980Z,92.30
2019-05-20T15:23:48.357Z,91.60
2019-05-20T15:26:14.739Z,89.17
2019-05-20T15:28:40.892Z,90.03
2019-05-20T15:31:07.137Z,88.00
2019-05-20T15:33:33.476Z,90.17
2019-05-20T15:35:59.857Z,91.87
2019-05-20T15:38:26.110Z,91.82
2019-05-20T15:40:52.206Z,89.33
2019-05-20T15:43:18.418Z,90.37
2019-05-20T15:45:44.616Z,90.62
2019-05-20T15:48:10.829Z,91.33
2019-05-20T15:50:36.970Z,90.03
2019-05-20T15:53:03.542Z,84.40
2019-05-20T15:55:29.879Z,84.58
2019-05-20T15:57:56.039Z,84.75
2019-05-20T16:00:22.468Z,86.45
2019-05-20T16:02:48.820Z,81.47
2019-05-20T16:05:15.166Z,82.92
2019-05-20T16:07:41.537Z,87.25
2019-05-20T16:10:08.247Z,81.85
2019-05-20T16:12:34.879Z,86.27
2019-05-20T16:15:01.398Z,81.50
2019-05-20T16:17:27.819Z,80.10
2019-05-20T16:19:54.267Z,79.00
2019-05-20T16:22:20.446Z,80.13
2019-05-20T16:24:46.672Z,79.23
2019-05-20T16:27:12.837Z,82.37
2019-05-20T16:29:39.309Z,81.55
2019-05-20T16:32:05.661Z,80.30
2019-05-20T16:34:31.870Z,79.27
2019-05-20T16:36:59.282Z,78.67
2019-05-20T16:39:25.546Z,84.67
2019-05-20T16:41:51.942Z,78.33
2019-05-20T16:44:18.398Z,76.00
2019-05-20T16:46:44.622Z,74.83
2019-05-20T16:49:11.005Z,73.80
2019-05-20T16:51:37.676Z,72.97
2019-05-20T16:54:04.087Z,74.53
2019-05-20T16:56:30.369Z,73.42
2019-05-20T16:58:56.695Z,70.95
2019-05-20T17:01:23.069Z,74.50
2019-05-20T17:03:49.295Z,73.60
2019-05-20T17:06:16.752Z,71.63
2019-05-20T17:08:43.014Z,70.32
2019-05-20T17:11:09.281Z,72.20
2019-05-20T17:13:35.710Z,71.75
2019-05-20T17:16:02.231Z,68.87
2019-05-20T17:18:28.574Z,72.00
2019-05-20T17:20:55.069Z,70.42
2019-05-20T17:23:21.286Z,71.07
2019-05-20T17:25:50.704Z,68.67
2019-05-20T17:28:15.858Z,71.00
2019-05-20T17:30:45.511Z,71.10
2019-05-20T17:33:10.677Z,72.08
2019-05-20T17:35:36.921Z,72.10
2019-05-20T17:38:03.403Z,70.65
2019-05-20T17:40:29.735Z,68.85
2019-05-20T17:42:56.058Z,75.92
2019-05-20T17:45:22.607Z,71.57
2019-05-20T17:47:49.066Z,75.03
2019-05-20T17:50:15.501Z,75.30
2019-05-20T17:52:41.741Z,76.75
2019-05-20T17:55:08.164Z,77.47
2019-05-20T17:57:34.490Z,86.30
2019-05-20T18:00:01.132Z,76.80
2019-05-20T18:02:27.477Z,72.97
2019-05-20T18:04:53.707Z,73.37
2019-05-20T18:07:20.029Z,80.62
2019-05-20T18:09:48.804Z,82.02
2019-05-20T18:12:15.197Z,80.10
2019-05-20T18:14:42.268Z,82.60
2019-05-20T18:17:08.657Z,78.20
2019-05-20T18:19:34.988Z,77.37
2019-05-20T18:22:01.296Z,78.53
2019-05-20T18:24:27.750Z,72.60
2019-05-20T18:26:54.057Z,76.55
2019-05-20T18:29:20.411Z,76.20
2019-05-20T18:31:47.598Z,78.47
2019-05-20T18:34:14.060Z,77.90
2019-05-20T18:36:40.722Z,70.83
2019-05-20T18:39:07.192Z,75.87
2019-05-20T18:41:33.503Z,72.63
2019-05-20T18:43:59.887Z,71.50
2019-05-20T18:46:26.171Z,75.07
2019-05-20T18:48:52.379Z,73.47
2019-05-20T18:51:18.637Z,70.80
2019-05-20T18:53:45.492Z,69.47
2019-05-20T18:56:11.774Z,69.47
2019-05-20T18:58:38.111Z,67.13
2019-05-20T19:01:04.974Z,70.77
2019-05-20T19:03:31.668Z,69.07
2019-05-20T19:05:58.101Z,69.67
2019-05-20T19:08:25.658Z,68.97
2019-05-20T19:10:51.934Z,65.30
2019-05-20T19:13:18.290Z,67.00
2019-05-20T19:15:44.537Z,64.23
2019-05-20T19:18:10.894Z,62.77
2019-05-20T19:20:37.224Z,64.33
2019-05-20T19:23:03.573Z,63.53
2019-05-20T19:25:37.420Z,62.03
2019-05-20T19:27:58.327Z,69.17
2019-05-20T19:30:24.885Z,63.80
2019-05-20T19:32:51.414Z,60.17
2019-05-20T19:35:17.945Z,62.80
2019-05-20T19:37:44.519Z,63.50
2019-05-20T19:40:11.341Z,64.67
2019-05-20T19:42:39.116Z,62.80
2019-05-20T19:45:07.088Z,61.80
2019-05-20T19:47:33.588Z,60.53
2019-05-20T19:50:00.142Z,62.50
2019-05-20T19:52:26.283Z,62.07
2019-05-20T19:54:52.770Z,63.50
2019-05-20T19:57:19.370Z,64.23
2019-05-20T19:59:45.682Z,62.70
2019-05-20T20:02:17.388Z,59.57
2019-05-20T20:04:40.102Z,60.97
2019-05-20T20:07:06.449Z,59.37
2019-05-20T20:09:32.586Z,63.40
2019-05-20T20:11:58.995Z,64.77
2019-05-20T20:14:25.171Z,63.90
2019-05-20T20:16:51.555Z,63.67
2019-05-20T20:19:17.758Z,69.47
2019-05-20T20:21:44.098Z,63.67
2019-05-20T20:24:10.379Z,64.57
2019-05-20T20:26:36.620Z,65.93
2019-05-20T20:29:02.835Z,65.70
2019-05-20T20:31:29.225Z,70.80
2019-05-20T20:33:55.445Z,64.17
2019-05-20T20:36:21.734Z,66.47
2019-05-20T20:38:47.960Z,65.17
2019-05-20T20:41:15.448Z,63.40
2019-05-20T20:43:41.850Z,66.83
2019-05-20T20:46:08.033Z,67.27
2019-05-20T20:48:34.367Z,66.43
2019-05-20T20:51:00.574Z,66.63
2019-05-20T20:53:26.822Z,63.73
2019-05-20T20:55:53.174Z,65.17
2019-05-20T20:58:19.559Z,60.20
2019-05-20T21:00:46.000Z,59.43
2019-05-20T21:03:12.362Z,56.97
2019-05-20T21:05:38.689Z,59.00
2019-05-20T21:08:05.005Z,59.10
2019-05-20T21:10:31.300Z,56.43
2019-05-20T21:12:57.435Z,58.30
2019-05-20T21:15:23.681Z,57.57
2019-05-20T21:17:49.911Z,57.00
2019-05-20T21:20:17.434Z,58.07
2019-05-20T21:22:43.791Z,56.23
2019-05-20T21:25:10.027Z,55.20
2019-05-20T21:27:36.147Z,57.33
2019-05-20T21:30:04.967Z,59.00
2019-05-20T21:32:31.271Z,58.03
2019-05-20T21:34:58.604Z,53.77
2019-05-20T21:37:24.787Z,53.27
2019-05-20T21:39:50.939Z,55.50
2019-05-20T21:42:17.289Z,54.37
2019-05-20T21:44:43.629Z,54.33
2019-05-20T21:47:09.953Z,55.53
2019-05-20T21:49:36.208Z,56.00
2019-05-20T21:52:02.483Z,55.73
2019-05-20T21:54:28.611Z,55.30
2019-05-20T21:56:54.955Z,52.63
2019-05-20T21:59:21.340Z,53.10
2019-05-20T22:01:47.560Z,56.50
2019-05-20T22:04:13.768Z,56.23
2019-05-20T22:06:39.911Z,53.93
2019-05-20T22:09:06.422Z,57.97
2019-05-20T22:11:32.892Z,54.57
2019-05-20T22:13:59.067Z,54.73
2019-05-20T22:16:25.177Z,57.93
2019-05-20T22:18:51.368Z,56.90
2019-05-20T22:21:19.398Z,58.23
2019-05-20T22:23:50.353Z,58.70
2019-05-20T22:26:16.596Z,60.00
2019-05-20T22:28:43.079Z,61.40
2019-05-20T22:31:09.279Z,61.00
2019-05-20T22:33:41.314Z,63.57
2019-05-20T22:36:03.788Z,64.47
2019-05-20T22:38:30.022Z,62.83
2019-05-20T22:40:56.356Z,65.07
2019-05-20T22:43:22.780Z,66.00
2019-05-20T22:45:50.264Z,69.37
2019-05-20T22:48:16.415Z,66.67
2019-05-20T22:50:43.016Z,62.63
2019-05-20T22:53:09.163Z,68.03
2019-05-20T22:55:35.310Z,67.73
2019-05-20T22:58:01.599Z,71.30
2019-05-20T23:00:27.931Z,68.47
2019-05-20T23:02:54.058Z,73.17
2019-05-20T23:05:20.425Z,73.80
2019-05-20T23:07:46.657Z,72.40
2019-05-20T23:10:12.966Z,78.20
2019-05-20T23:12:39.082Z,76.90
2019-05-20T23:15:06.241Z,73.57
2019-05-20T23:17:32.560Z,77.10
2019-05-20T23:19:58.679Z,84.87
2019-05-20T23:22:24.916Z,88.47
2019-05-20T23:24:51.150Z,79.00
2019-05-20T23:27:17.295Z,78.03
2019-05-20T23:29:43.396Z,76.90
2019-05-20T23:32:09.741Z,72.53
2019-05-20T23:34:36.020Z,75.37
2019-05-20T23:37:02.248Z,79.90
2019-05-20T23:39:29.477Z,69.63
2019-05-20T23:41:55.608Z,76.13
2019-05-20T23:44:21.750Z,82.00
2019-05-20T23:46:47.985Z,79.00
2019-05-20T23:49:14.121Z,81.07
2019-05-20T23:51:40.376Z,82.27
2019-05-20T23:54:06.588Z,88.90
2019-05-20T23:56:32.972Z,81.83
2019-05-20T23:58:59.283Z,81.63
